Time;durP1;ratioP1;P1;durP2;ratioP2;P2;SDS_P1;SDS_P2;PMS_P1;PMS_P2;Temp;Humidity;BMP_temperature;BMP_pressure;BME280_temperature;BME280_humidity;BME280_pressure;Samples;Min_cycle;Max_cycle;Signal;HPM_P1;HPM_P2
2024/04/08 00:05:06;;;;;;;36.90;17.00;;;;;;;16.02;81.29;100423.13;664531;1263;139823;-77
2024/04/08 00:20:11;;;;;;;24.30;12.40;;;;;;;15.87;81.70;100430.20;664414;1263;139842;-77
2024/04/08 00:35:14;;;;;;;7.40;3.50;;;;;;;15.79;81.59;100429.54;663306;1264;140141;-78
2024/04/08 00:50:17;;;;;;;6.30;3.70;;;;;;;15.36;82.56;100428.05;665265;1273;139419;-78
2024/04/08 01:05:20;;;;;;;19.90;10.30;;;;;;;15.16;83.78;100416.48;665253;1269;140232;-79
2024/04/08 01:20:24;;;;;;;9.80;5.60;;;;;;;15.21;83.31;100397.03;666705;1272;139925;-79
2024/04/08 01:35:27;;;;;;;8.90;4.10;;;;;;;15.08;83.67;100396.95;666378;1274;140284;-79
2024/04/08 01:50:32;;;;;;;15.90;9.10;;;;;;;15.01;83.96;100400.92;666874;1261;140360;-78
2024/04/08 02:05:35;;;;;;;23.20;10.40;;;;;;;14.75;84.46;100405.05;665839;1263;141068;-79
2024/04/08 02:20:39;;;;;;;25.80;13.30;;;;;;;14.53;85.06;100396.52;666229;1265;140389;-79
2024/04/08 02:35:42;;;;;;;11.50;5.20;;;;;;;14.30;85.30;100374.20;666640;1264;140528;-80
2024/04/08 02:50:46;;;;;;;4.10;2.70;;;;;;;14.35;85.75;100345.16;669389;1264;139827;-78
2024/04/08 03:05:49;;;;;;;3.00;2.00;;;;;;;14.73;85.37;100324.23;666969;1264;140368;-78
2024/04/08 03:21:01;;;;;;;5.00;1.90;;;;;;;15.09;84.87;100322.77;666912;1263;140050;-77
2024/04/08 03:36:11;;;;;;;39.80;17.10;;;;;;;15.37;83.25;100324.77;665372;1264;141108;-78
2024/04/08 03:51:13;;;;;;;6.30;1.60;;;;;;;15.48;82.21;100319.88;665136;1260;140154;-77
2024/04/08 04:06:16;;;;;;;5.40;2.00;;;;;;;15.77;81.09;100328.30;665842;1264;139173;-78
2024/04/08 04:21:19;;;;;;;6.70;2.90;;;;;;;15.86;80.13;100361.46;667502;1263;139177;-79
2024/04/08 04:36:23;;;;;;;7.20;4.40;;;;;;;15.91;79.92;100355.19;669549;1273;139909;-79
2024/04/08 04:51:26;;;;;;;2.00;1.50;;;;;;;16.10;79.83;100336.59;667274;1264;140260;-78
2024/04/08 05:06:28;;;;;;;4.00;1.90;;;;;;;16.35;79.68;100340.00;668019;1264;139415;-80
2024/04/08 05:21:32;;;;;;;3.50;1.50;;;;;;;16.47;79.65;100317.45;668742;1263;139112;-79
2024/04/08 05:36:35;;;;;;;19.90;8.10;;;;;;;16.62;80.15;100299.48;667859;1273;140008;-79
2024/04/08 05:51:38;;;;;;;13.50;5.90;;;;;;;17.08;79.59;100306.52;669063;1273;140699;-78
2024/04/08 06:06:41;;;;;;;15.50;7.80;;;;;;;17.40;80.02;100322.82;666705;1260;140876;-78
2024/04/08 06:21:44;;;;;;;9.40;3.50;;;;;;;17.81;79.72;100327.81;668946;1262;139353;-79
2024/04/08 06:36:47;;;;;;;6.60;3.40;;;;;;;18.34;79.33;100324.17;669508;1259;140522;-79
2024/04/08 06:51:50;;;;;;;9.80;5.40;;;;;;;18.92;79.30;100311.64;665306;1274;139239;-78
2024/04/08 07:06:53;;;;;;;10.40;3.50;;;;;;;19.05;79.33;100298.77;670450;1263;139495;-79
2024/04/08 07:21:56;;;;;;;10.20;4.50;;;;;;;19.83;78.69;100288.95;665899;1264;139871;-79
2024/04/08 07:36:59;;;;;;;6.30;3.50;;;;;;;20.82;77.04;100275.52;666928;1261;140909;-79
2024/04/08 07:52:02;;;;;;;6.30;3.70;;;;;;;21.30;76.09;100253.90;668177;1262;140271;-80
2024/04/08 08:07:05;;;;;;;8.00;4.70;;;;;;;21.94;75.22;100251.00;667344;1262;139562;-78
2024/04/08 08:22:09;;;;;;;10.10;5.60;;;;;;;22.58;73.23;100261.13;674598;1262;139331;-80
2024/04/08 08:37:12;;;;;;;10.90;6.10;;;;;;;22.51;72.93;100256.38;667395;1264;140535;-82
2024/04/08 08:52:16;;;;;;;9.80;4.90;;;;;;;23.39;72.28;100257.42;665874;1258;139680;-80
2024/04/08 09:07:19;;;;;;;10.80;6.20;;;;;;;23.92;71.15;100228.32;666418;1262;139304;-78
2024/04/08 09:22:23;;;;;;;11.30;7.00;;;;;;;24.64;70.03;100229.98;665755;1262;138880;-77
2024/04/08 09:37:27;;;;;;;10.40;6.40;;;;;;;25.52;68.79;100232.36;666257;1263;138707;-78
2024/04/08 09:52:31;;;;;;;17.80;9.70;;;;;;;25.79;68.09;100230.83;666954;1262;139176;-77
2024/04/08 10:07:35;;;;;;;11.60;6.50;;;;;;;25.71;68.08;100211.52;666177;1262;139964;-78
2024/04/08 10:22:39;;;;;;;10.30;6.80;;;;;;;26.05;67.85;100196.23;668202;1264;140308;-78
2024/04/08 10:37:42;;;;;;;10.40;6.50;;;;;;;26.51;68.33;100172.32;666998;1275;139179;-79
2024/04/08 10:52:45;;;;;;;16.00;10.90;;;;;;;26.74;66.34;100147.32;667725;1263;154972;-78
2024/04/08 11:07:49;;;;;;;17.80;13.30;;;;;;;26.90;65.93;100126.99;666831;1260;140661;-78
2024/04/08 11:22:54;;;;;;;10.70;7.40;;;;;;;27.11;65.53;100121.73;669769;1264;140426;-79
2024/04/08 11:37:57;;;;;;;11.00;7.20;;;;;;;27.63;64.78;100120.23;669357;1262;139718;-78
2024/04/08 11:53:14;;;;;;;12.20;6.80;;;;;;;27.28;65.89;100118.75;671804;1263;139983;-78
2024/04/08 12:08:18;;;;;;;14.20;9.60;;;;;;;27.03;67.60;100112.00;668937;1263;140857;-80
2024/04/08 12:23:21;;;;;;;13.00;7.70;;;;;;;26.79;67.99;100092.62;665677;1263;139004;-79
2024/04/08 12:38:25;;;;;;;13.90;8.70;;;;;;;26.27;69.47;100084.35;666677;1262;139159;-80
2024/04/08 12:53:28;;;;;;;10.60;6.70;;;;;;;26.10;70.93;100061.66;669044;1262;139926;-77
2024/04/08 13:08:31;;;;;;;12.60;9.30;;;;;;;25.94;72.86;100074.81;666014;1262;140840;-78
2024/04/08 13:23:34;;;;;;;20.40;10.30;;;;;;;26.32;73.89;100054.17;665155;1262;139607;-77
2024/04/08 13:38:37;;;;;;;10.50;7.50;;;;;;;26.44;74.52;100044.23;665401;1262;139101;-78
2024/04/08 13:53:41;;;;;;;13.80;8.80;;;;;;;26.80;73.78;100033.08;665832;1263;140139;-77
2024/04/08 14:08:45;;;;;;;8.90;6.50;;;;;;;26.95;73.07;100027.02;665519;1264;141336;-78
2024/04/08 14:23:48;;;;;;;8.00;5.70;;;;;;;27.05;73.35;100003.63;666200;1262;138606;-78
2024/04/08 14:38:52;;;;;;;7.60;6.00;;;;;;;27.12;73.54;99992.28;664919;1262;138973;-79
2024/04/08 14:54:17;;;;;;;10.10;4.70;;;;;;;27.38;72.78;99979.53;663978;1263;138527;-78
2024/04/08 15:09:21;;;;;;;6.70;4.40;;;;;;;27.41;71.16;99963.63;668335;1266;138921;-78
2024/04/08 15:24:24;;;;;;;8.50;4.20;;;;;;;27.24;70.02;99934.70;667586;1262;138954;-79
2024/04/08 15:39:27;;;;;;;6.90;3.50;;;;;;;26.81;70.33;99916.23;664888;1262;139087;-78
2024/04/08 15:54:30;;;;;;;7.10;3.90;;;;;;;26.73;70.06;99911.89;667371;1265;140300;-79
2024/04/08 16:09:34;;;;;;;15.80;4.90;;;;;;;26.71;69.17;99922.18;673497;1264;137463;-78
2024/04/08 16:24:37;;;;;;;10.60;4.50;;;;;;;26.74;69.47;99935.77;666912;1262;139126;-81
2024/04/08 16:39:40;;;;;;;9.00;4.30;;;;;;;26.30;70.25;99938.85;667011;1262;139204;-80
2024/04/08 16:54:44;;;;;;;15.30;7.70;;;;;;;25.59;71.57;99924.27;668901;1260;138939;-79
2024/04/08 17:09:47;;;;;;;37.80;19.70;;;;;;;24.88;72.85;99934.10;669243;1262;139660;-80
2024/04/08 17:24:50;;;;;;;40.00;21.10;;;;;;;23.99;75.15;99941.12;669913;1275;139986;-81
2024/04/08 17:39:54;;;;;;;38.90;25.10;;;;;;;23.34;76.68;99944.07;671066;1265;140006;-83
2024/04/08 17:54:58;;;;;;;33.20;20.50;;;;;;;22.57;78.59;99946.17;671020;1273;140304;-80
2024/04/08 18:10:02;;;;;;;61.70;30.20;;;;;;;22.01;80.64;99959.39;669485;1264;139740;-79
2024/04/08 18:25:08;;;;;;;23.20;12.60;;;;;;;21.27;82.10;99960.16;669550;1262;142924;-81
2024/04/08 18:40:11;;;;;;;39.10;18.70;;;;;;;20.85;83.73;99955.80;669037;1262;140358;-79
2024/04/08 18:55:14;;;;;;;58.60;28.80;;;;;;;21.08;85.10;99941.70;671099;1272;140751;-83
2024/04/08 19:10:18;;;;;;;124.60;65.30;;;;;;;21.32;84.91;99948.32;673719;1265;139709;-80
2024/04/08 19:25:21;;;;;;;151.30;82.10;;;;;;;20.88;86.21;99943.90;675096;1263;140364;-80
2024/04/08 19:40:24;;;;;;;135.40;69.30;;;;;;;20.64;87.50;99949.01;672916;1263;140106;-80
2024/04/08 19:55:27;;;;;;;141.90;61.80;;;;;;;20.44;88.34;99946.23;669859;1261;139838;-79
2024/04/08 20:10:32;;;;;;;23.40;11.50;;;;;;;20.65;88.51;99938.34;668664;1272;139701;-80
2024/04/08 20:25:35;;;;;;;28.40;10.80;;;;;;;21.50;86.52;99928.25;668407;1262;139456;-79
2024/04/08 20:40:38;;;;;;;14.80;7.40;;;;;;;22.14;82.97;99922.59;668784;1264;139936;-82
2024/04/08 20:55:41;;;;;;;11.60;7.40;;;;;;;22.14;80.95;99915.65;668094;1267;139374;-81
2024/04/08 21:10:45;;;;;;;13.50;8.10;;;;;;;21.85;80.06;99899.15;667978;1263;140213;-81
2024/04/08 21:25:48;;;;;;;13.50;5.80;;;;;;;21.68;79.04;99897.25;668565;1273;139625;-81
2024/04/08 21:40:58;;;;;;;10.60;6.40;;;;;;;21.70;77.15;99885.77;668720;1264;139389;-80
2024/04/08 21:56:03;;;;;;;9.20;4.90;;;;;;;21.55;76.43;99883.58;669270;1273;139197;-82
2024/04/08 22:11:08;;;;;;;13.70;6.80;;;;;;;21.51;75.49;99877.70;668882;1261;139514;-82
2024/04/08 22:26:11;;;;;;;10.20;5.30;;;;;;;21.14;76.72;99878.84;667429;1262;139160;-80
2024/04/08 22:41:14;;;;;;;10.20;5.10;;;;;;;20.81;77.59;99870.73;666785;1264;139866;-80
2024/04/08 22:56:22;;;;;;;;;;;;;;;20.73;77.36;99864.52;667444;1264;292718;-82
2024/04/08 23:11:25;;;;;;;11.80;5.40;;;;;;;20.65;76.85;99867.71;667162;1261;125720;-80
2024/04/08 23:26:29;;;;;;;20.90;12.80;;;;;;;20.13;77.31;99862.53;668816;1264;139626;-80
2024/04/08 23:41:32;;;;;;;9.20;5.30;;;;;;;19.48;78.65;99862.56;667694;1266;139573;-80
2024/04/08 23:56:35;;;;;;;8.20;5.00;;;;;;;19.66;79.43;99852.86;675801;1264;138724;-82
